sensor_id;sensor_type;location;lat;lon;timestamp;P1;durP1;ratioP1;P2;durP2;ratioP2
19167;SDS011;9716;53.114;18.040;2023-09-19T00:00:43;15.10;;;9.27;;
19167;SDS011;9716;53.114;18.040;2023-09-19T00:03:34;12.43;;;8.13;;
19167;SDS011;9716;53.114;18.040;2023-09-19T00:06:05;17.05;;;9.20;;
19167;SDS011;9716;53.114;18.040;2023-09-19T00:08:35;14.65;;;8.10;;
19167;SDS011;9716;53.114;18.040;2023-09-19T00:11:05;16.00;;;8.52;;
19167;SDS011;9716;53.114;18.040;2023-09-19T00:13:35;13.88;;;8.50;;
19167;SDS011;9716;53.114;18.040;2023-09-19T00:16:07;17.08;;;8.88;;
19167;SDS011;9716;53.114;18.040;2023-09-19T00:18:38;16.38;;;8.40;;
19167;SDS011;9716;53.114;18.040;2023-09-19T00:21:06;17.05;;;8.77;;
19167;SDS011;9716;53.114;18.040;2023-09-19T00:23:34;22.05;;;8.18;;
19167;SDS011;9716;53.114;18.040;2023-09-19T00:26:03;15.75;;;8.50;;
19167;SDS011;9716;53.114;18.040;2023-09-19T00:28:33;13.13;;;8.20;;
19167;SDS011;9716;53.114;18.040;2023-09-19T00:31:02;18.42;;;9.25;;
19167;SDS011;9716;53.114;18.040;2023-09-19T00:33:32;16.20;;;8.63;;
19167;SDS011;9716;53.114;18.040;2023-09-19T00:36:00;19.67;;;8.80;;
19167;SDS011;9716;53.114;18.040;2023-09-19T00:38:32;16.02;;;8.20;;
19167;SDS011;9716;53.114;18.040;2023-09-19T00:41:00;15.32;;;7.85;;
19167;SDS011;9716;53.114;18.040;2023-09-19T00:43:31;18.58;;;8.38;;
19167;SDS011;9716;53.114;18.040;2023-09-19T00:46:01;12.52;;;7.20;;
19167;SDS011;9716;53.114;18.040;2023-09-19T00:48:31;10.88;;;7.65;;
19167;SDS011;9716;53.114;18.040;2023-09-19T00:51:04;12.90;;;7.20;;
19167;SDS011;9716;53.114;18.040;2023-09-19T00:53:33;9.60;;;6.45;;
19167;SDS011;9716;53.114;18.040;2023-09-19T00:56:02;9.40;;;5.90;;
19167;SDS011;9716;53.114;18.040;2023-09-19T00:58:33;12.60;;;7.15;;
19167;SDS011;9716;53.114;18.040;2023-09-19T01:01:02;9.93;;;5.65;;
19167;SDS011;9716;53.114;18.040;2023-09-19T01:03:34;13.68;;;6.68;;
19167;SDS011;9716;53.114;18.040;2023-09-19T01:06:03;7.50;;;5.00;;
19167;SDS011;9716;53.114;18.040;2023-09-19T01:08:31;11.63;;;5.65;;
19167;SDS011;9716;53.114;18.040;2023-09-19T01:13:50;12.75;;;5.80;;
19167;SDS011;9716;53.114;18.040;2023-09-19T01:16:30;12.20;;;4.88;;
19167;SDS011;9716;53.114;18.040;2023-09-19T01:19:10;6.65;;;4.35;;
19167;SDS011;9716;53.114;18.040;2023-09-19T01:21:53;15.77;;;5.43;;
19167;SDS011;9716;53.114;18.040;2023-09-19T01:27:25;9.52;;;4.45;;
19167;SDS011;9716;53.114;18.040;2023-09-19T01:30:27;6.80;;;4.13;;
19167;SDS011;9716;53.114;18.040;2023-09-19T01:33:04;6.53;;;4.43;;
19167;SDS011;9716;53.114;18.040;2023-09-19T01:35:35;9.10;;;3.92;;
19167;SDS011;9716;53.114;18.040;2023-09-19T01:38:05;17.25;;;4.05;;
19167;SDS011;9716;53.114;18.040;2023-09-19T01:40:38;11.15;;;4.10;;
19167;SDS011;9716;53.114;18.040;2023-09-19T01:43:12;5.38;;;3.92;;
19167;SDS011;9716;53.114;18.040;2023-09-19T01:45:51;10.32;;;3.83;;
19167;SDS011;9716;53.114;18.040;2023-09-19T01:48:30;4.45;;;3.38;;
19167;SDS011;9716;53.114;18.040;2023-09-19T01:51:07;6.43;;;3.90;;
19167;SDS011;9716;53.114;18.040;2023-09-19T01:53:41;5.13;;;3.20;;
19167;SDS011;9716;53.114;18.040;2023-09-19T01:56:16;4.93;;;3.35;;
19167;SDS011;9716;53.114;18.040;2023-09-19T01:58:51;5.93;;;3.30;;
19167;SDS011;9716;53.114;18.040;2023-09-19T02:01:25;5.32;;;3.15;;
19167;SDS011;9716;53.114;18.040;2023-09-19T02:03:55;5.20;;;3.30;;
19167;SDS011;9716;53.114;18.040;2023-09-19T02:06:24;6.85;;;3.28;;
19167;SDS011;9716;53.114;18.040;2023-09-19T02:08:53;3.67;;;2.80;;
19167;SDS011;9716;53.114;18.040;2023-09-19T02:11:22;5.35;;;2.95;;
19167;SDS011;9716;53.114;18.040;2023-09-19T02:13:51;5.15;;;3.38;;
19167;SDS011;9716;53.114;18.040;2023-09-19T02:16:21;4.53;;;2.58;;
19167;SDS011;9716;53.114;18.040;2023-09-19T02:18:51;4.72;;;2.55;;
19167;SDS011;9716;53.114;18.040;2023-09-19T02:21:20;4.47;;;2.85;;
19167;SDS011;9716;53.114;18.040;2023-09-19T02:23:49;5.00;;;2.95;;
19167;SDS011;9716;53.114;18.040;2023-09-19T02:26:18;4.68;;;3.00;;
19167;SDS011;9716;53.114;18.040;2023-09-19T02:28:47;4.53;;;2.97;;
19167;SDS011;9716;53.114;18.040;2023-09-19T02:31:15;5.50;;;3.42;;
19167;SDS011;9716;53.114;18.040;2023-09-19T02:33:44;3.90;;;2.55;;
19167;SDS011;9716;53.114;18.040;2023-09-19T02:36:14;5.68;;;3.08;;
19167;SDS011;9716;53.114;18.040;2023-09-19T02:38:44;4.82;;;3.05;;
19167;SDS011;9716;53.114;18.040;2023-09-19T02:41:13;5.32;;;2.00;;
19167;SDS011;9716;53.114;18.040;2023-09-19T02:43:41;4.70;;;2.85;;
19167;SDS011;9716;53.114;18.040;2023-09-19T02:46:10;6.07;;;3.08;;
19167;SDS011;9716;53.114;18.040;2023-09-19T02:48:39;6.13;;;3.20;;
19167;SDS011;9716;53.114;18.040;2023-09-19T02:51:08;6.25;;;3.17;;
19167;SDS011;9716;53.114;18.040;2023-09-19T02:53:38;7.93;;;3.05;;
19167;SDS011;9716;53.114;18.040;2023-09-19T02:56:07;5.55;;;3.45;;
19167;SDS011;9716;53.114;18.040;2023-09-19T02:58:38;3.65;;;2.08;;
19167;SDS011;9716;53.114;18.040;2023-09-19T03:01:08;3.53;;;2.67;;
19167;SDS011;9716;53.114;18.040;2023-09-19T03:03:38;5.22;;;3.47;;
19167;SDS011;9716;53.114;18.040;2023-09-19T03:06:07;6.45;;;3.35;;
19167;SDS011;9716;53.114;18.040;2023-09-19T03:08:36;8.90;;;3.38;;
19167;SDS011;9716;53.114;18.040;2023-09-19T03:11:08;6.22;;;3.08;;
19167;SDS011;9716;53.114;18.040;2023-09-19T03:13:38;5.38;;;2.78;;
19167;SDS011;9716;53.114;18.040;2023-09-19T03:16:07;3.92;;;2.95;;
19167;SDS011;9716;53.114;18.040;2023-09-19T03:18:35;4.13;;;2.80;;
19167;SDS011;9716;53.114;18.040;2023-09-19T03:21:04;6.43;;;2.85;;
19167;SDS011;9716;53.114;18.040;2023-09-19T03:23:32;5.20;;;3.42;;
19167;SDS011;9716;53.114;18.040;2023-09-19T03:26:02;8.20;;;3.38;;
19167;SDS011;9716;53.114;18.040;2023-09-19T03:28:32;6.13;;;3.25;;
19167;SDS011;9716;53.114;18.040;2023-09-19T03:31:02;4.70;;;3.03;;
19167;SDS011;9716;53.114;18.040;2023-09-19T03:33:31;5.47;;;2.78;;
19167;SDS011;9716;53.114;18.040;2023-09-19T03:36:00;3.63;;;2.78;;
19167;SDS011;9716;53.114;18.040;2023-09-19T03:38:31;7.25;;;3.10;;
19167;SDS011;9716;53.114;18.040;2023-09-19T03:41:03;4.25;;;2.92;;
19167;SDS011;9716;53.114;18.040;2023-09-19T03:43:32;5.22;;;2.38;;
19167;SDS011;9716;53.114;18.040;2023-09-19T03:46:01;7.85;;;3.72;;
19167;SDS011;9716;53.114;18.040;2023-09-19T03:48:30;3.38;;;2.58;;
19167;SDS011;9716;53.114;18.040;2023-09-19T03:51:00;4.32;;;2.53;;
19167;SDS011;9716;53.114;18.040;2023-09-19T03:53:29;6.72;;;3.17;;
19167;SDS011;9716;53.114;18.040;2023-09-19T03:55:57;4.20;;;2.67;;
19167;SDS011;9716;53.114;18.040;2023-09-19T03:58:28;6.20;;;2.78;;
19167;SDS011;9716;53.114;18.040;2023-09-19T04:00:57;5.15;;;3.00;;
19167;SDS011;9716;53.114;18.040;2023-09-19T04:03:26;5.70;;;2.72;;
19167;SDS011;9716;53.114;18.040;2023-09-19T04:06:02;4.35;;;2.80;;
19167;SDS011;9716;53.114;18.040;2023-09-19T04:08:30;9.65;;;2.88;;
19167;SDS011;9716;53.114;18.040;2023-09-19T04:10:59;4.50;;;2.47;;
19167;SDS011;9716;53.114;18.040;2023-09-19T04:13:29;4.68;;;2.70;;
19167;SDS011;9716;53.114;18.040;2023-09-19T04:15:58;7.80;;;2.85;;
19167;SDS011;9716;53.114;18.040;2023-09-19T04:18:26;2.97;;;2.33;;
19167;SDS011;9716;53.114;18.040;2023-09-19T04:20:57;3.17;;;2.60;;
19167;SDS011;9716;53.114;18.040;2023-09-19T04:23:27;6.65;;;2.70;;
19167;SDS011;9716;53.114;18.040;2023-09-19T04:25:56;4.85;;;2.55;;
19167;SDS011;9716;53.114;18.040;2023-09-19T04:28:25;10.57;;;3.03;;
19167;SDS011;9716;53.114;18.040;2023-09-19T04:30:56;6.72;;;3.65;;
19167;SDS011;9716;53.114;18.040;2023-09-19T04:33:25;6.95;;;3.33;;
19167;SDS011;9716;53.114;18.040;2023-09-19T04:35:54;7.25;;;3.30;;
19167;SDS011;9716;53.114;18.040;2023-09-19T04:38:28;9.93;;;3.00;;
19167;SDS011;9716;53.114;18.040;2023-09-19T04:40:57;6.00;;;3.13;;
19167;SDS011;9716;53.114;18.040;2023-09-19T04:43:26;7.97;;;3.63;;
19167;SDS011;9716;53.114;18.040;2023-09-19T04:45:57;9.23;;;2.63;;
19167;SDS011;9716;53.114;18.040;2023-09-19T04:48:27;10.27;;;2.78;;
19167;SDS011;9716;53.114;18.040;2023-09-19T04:50:56;4.45;;;3.15;;
19167;SDS011;9716;53.114;18.040;2023-09-19T04:53:26;7.15;;;3.55;;
19167;SDS011;9716;53.114;18.040;2023-09-19T04:55:54;6.53;;;2.83;;
19167;SDS011;9716;53.114;18.040;2023-09-19T04:58:23;4.75;;;2.28;;
19167;SDS011;9716;53.114;18.040;2023-09-19T05:00:51;6.03;;;3.13;;
19167;SDS011;9716;53.114;18.040;2023-09-19T05:03:21;7.45;;;3.05;;
19167;SDS011;9716;53.114;18.040;2023-09-19T05:05:50;5.53;;;2.65;;
19167;SDS011;9716;53.114;18.040;2023-09-19T05:08:19;4.50;;;3.05;;
19167;SDS011;9716;53.114;18.040;2023-09-19T05:10:49;6.07;;;3.05;;
19167;SDS011;9716;53.114;18.040;2023-09-19T05:13:17;7.43;;;3.10;;
19167;SDS011;9716;53.114;18.040;2023-09-19T05:15:46;7.05;;;2.88;;
19167;SDS011;9716;53.114;18.040;2023-09-19T05:18:14;3.80;;;2.60;;
19167;SDS011;9716;53.114;18.040;2023-09-19T05:20:44;8.65;;;2.20;;
19167;SDS011;9716;53.114;18.040;2023-09-19T05:23:12;5.63;;;2.92;;
19167;SDS011;9716;53.114;18.040;2023-09-19T05:25:41;4.03;;;2.88;;
19167;SDS011;9716;53.114;18.040;2023-09-19T05:28:10;7.80;;;2.72;;
19167;SDS011;9716;53.114;18.040;2023-09-19T05:30:42;7.70;;;2.70;;
19167;SDS011;9716;53.114;18.040;2023-09-19T05:33:14;6.00;;;2.70;;
19167;SDS011;9716;53.114;18.040;2023-09-19T05:35:46;4.90;;;2.58;;
19167;SDS011;9716;53.114;18.040;2023-09-19T05:38:15;6.78;;;2.47;;
19167;SDS011;9716;53.114;18.040;2023-09-19T05:40:45;10.63;;;2.72;;
19167;SDS011;9716;53.114;18.040;2023-09-19T05:43:14;3.63;;;2.00;;
19167;SDS011;9716;53.114;18.040;2023-09-19T05:45:42;4.40;;;2.42;;
19167;SDS011;9716;53.114;18.040;2023-09-19T05:48:12;6.13;;;2.22;;
19167;SDS011;9716;53.114;18.040;2023-09-19T05:50:43;4.93;;;2.50;;
19167;SDS011;9716;53.114;18.040;2023-09-19T05:53:17;4.00;;;2.20;;
19167;SDS011;9716;53.114;18.040;2023-09-19T05:55:45;4.80;;;2.72;;
19167;SDS011;9716;53.114;18.040;2023-09-19T05:58:14;2.63;;;1.95;;
19167;SDS011;9716;53.114;18.040;2023-09-19T06:00:44;3.95;;;2.17;;
19167;SDS011;9716;53.114;18.040;2023-09-19T06:03:15;4.38;;;2.03;;
19167;SDS011;9716;53.114;18.040;2023-09-19T06:05:45;5.55;;;2.65;;
19167;SDS011;9716;53.114;18.040;2023-09-19T06:08:17;2.70;;;2.03;;
19167;SDS011;9716;53.114;18.040;2023-09-19T06:10:46;6.88;;;2.22;;
19167;SDS011;9716;53.114;18.040;2023-09-19T06:13:15;2.90;;;2.15;;
19167;SDS011;9716;53.114;18.040;2023-09-19T06:15:45;3.67;;;1.90;;
19167;SDS011;9716;53.114;18.040;2023-09-19T06:18:14;7.55;;;2.22;;
19167;SDS011;9716;53.114;18.040;2023-09-19T06:20:47;6.13;;;2.15;;
19167;SDS011;9716;53.114;18.040;2023-09-19T06:23:19;5.55;;;2.50;;
19167;SDS011;9716;53.114;18.040;2023-09-19T06:25:49;6.63;;;2.05;;
19167;SDS011;9716;53.114;18.040;2023-09-19T06:28:18;6.18;;;2.97;;
19167;SDS011;9716;53.114;18.040;2023-09-19T06:30:50;3.50;;;2.22;;
19167;SDS011;9716;53.114;18.040;2023-09-19T06:33:19;4.50;;;2.15;;
19167;SDS011;9716;53.114;18.040;2023-09-19T06:35:48;5.97;;;2.05;;
19167;SDS011;9716;53.114;18.040;2023-09-19T06:38:20;3.17;;;2.10;;
19167;SDS011;9716;53.114;18.040;2023-09-19T06:40:50;2.95;;;2.05;;
19167;SDS011;9716;53.114;18.040;2023-09-19T06:43:19;3.45;;;2.03;;
19167;SDS011;9716;53.114;18.040;2023-09-19T06:45:47;3.45;;;2.40;;
19167;SDS011;9716;53.114;18.040;2023-09-19T06:48:17;3.70;;;2.20;;
19167;SDS011;9716;53.114;18.040;2023-09-19T06:50:45;4.80;;;2.05;;
19167;SDS011;9716;53.114;18.040;2023-09-19T06:53:14;2.90;;;1.80;;
19167;SDS011;9716;53.114;18.040;2023-09-19T06:55:44;1.90;;;1.73;;
19167;SDS011;9716;53.114;18.040;2023-09-19T06:58:14;4.00;;;2.58;;
19167;SDS011;9716;53.114;18.040;2023-09-19T07:00:43;3.40;;;2.45;;
19167;SDS011;9716;53.114;18.040;2023-09-19T07:03:12;4.45;;;2.25;;
19167;SDS011;9716;53.114;18.040;2023-09-19T07:05:43;4.35;;;2.28;;
19167;SDS011;9716;53.114;18.040;2023-09-19T07:08:11;7.18;;;2.60;;
19167;SDS011;9716;53.114;18.040;2023-09-19T07:10:40;5.30;;;2.25;;
19167;SDS011;9716;53.114;18.040;2023-09-19T07:13:17;4.03;;;2.85;;
19167;SDS011;9716;53.114;18.040;2023-09-19T07:15:46;8.80;;;2.55;;
19167;SDS011;9716;53.114;18.040;2023-09-19T07:18:16;8.38;;;2.97;;
19167;SDS011;9716;53.114;18.040;2023-09-19T07:20:46;4.53;;;2.58;;
19167;SDS011;9716;53.114;18.040;2023-09-19T07:23:17;2.65;;;2.17;;
19167;SDS011;9716;53.114;18.040;2023-09-19T07:25:48;6.35;;;3.15;;
19167;SDS011;9716;53.114;18.040;2023-09-19T07:28:18;9.43;;;2.35;;
19167;SDS011;9716;53.114;18.040;2023-09-19T07:30:48;2.78;;;2.15;;
19167;SDS011;9716;53.114;18.040;2023-09-19T07:33:16;4.10;;;2.53;;
19167;SDS011;9716;53.114;18.040;2023-09-19T07:35:45;2.50;;;1.95;;
19167;SDS011;9716;53.114;18.040;2023-09-19T07:38:14;8.98;;;2.55;;
19167;SDS011;9716;53.114;18.040;2023-09-19T07:40:43;5.93;;;2.67;;
19167;SDS011;9716;53.114;18.040;2023-09-19T07:43:12;6.30;;;3.22;;
19167;SDS011;9716;53.114;18.040;2023-09-19T07:45:42;4.18;;;2.50;;
19167;SDS011;9716;53.114;18.040;2023-09-19T07:48:10;3.88;;;2.88;;
19167;SDS011;9716;53.114;18.040;2023-09-19T07:50:42;11.95;;;2.97;;
19167;SDS011;9716;53.114;18.040;2023-09-19T07:53:11;2.80;;;2.42;;
19167;SDS011;9716;53.114;18.040;2023-09-19T07:55:42;4.88;;;3.17;;
19167;SDS011;9716;53.114;18.040;2023-09-19T07:58:15;7.50;;;2.25;;
19167;SDS011;9716;53.114;18.040;2023-09-19T08:00:45;3.40;;;2.33;;
19167;SDS011;9716;53.114;18.040;2023-09-19T08:03:13;4.53;;;2.80;;
19167;SDS011;9716;53.114;18.040;2023-09-19T08:05:44;3.10;;;2.20;;
19167;SDS011;9716;53.114;18.040;2023-09-19T08:08:15;3.72;;;2.47;;
19167;SDS011;9716;53.114;18.040;2023-09-19T08:10:43;6.32;;;2.40;;
19167;SDS011;9716;53.114;18.040;2023-09-19T08:13:15;3.30;;;2.20;;
19167;SDS011;9716;53.114;18.040;2023-09-19T08:15:46;4.90;;;2.60;;
19167;SDS011;9716;53.114;18.040;2023-09-19T08:18:15;6.20;;;2.28;;
19167;SDS011;9716;53.114;18.040;2023-09-19T08:20:48;3.65;;;2.67;;
19167;SDS011;9716;53.114;18.040;2023-09-19T08:23:17;4.00;;;2.15;;
19167;SDS011;9716;53.114;18.040;2023-09-19T08:25:47;4.18;;;2.38;;
19167;SDS011;9716;53.114;18.040;2023-09-19T08:28:15;5.68;;;2.20;;
19167;SDS011;9716;53.114;18.040;2023-09-19T08:30:47;5.28;;;2.63;;
19167;SDS011;9716;53.114;18.040;2023-09-19T08:33:15;4.90;;;2.20;;
19167;SDS011;9716;53.114;18.040;2023-09-19T08:35:44;6.75;;;2.42;;
19167;SDS011;9716;53.114;18.040;2023-09-19T08:38:12;10.32;;;2.42;;
19167;SDS011;9716;53.114;18.040;2023-09-19T08:40:41;2.63;;;2.00;;
19167;SDS011;9716;53.114;18.040;2023-09-19T08:43:10;3.72;;;2.17;;
19167;SDS011;9716;53.114;18.040;2023-09-19T08:45:39;3.85;;;2.22;;
19167;SDS011;9716;53.114;18.040;2023-09-19T08:48:16;3.30;;;2.25;;
19167;SDS011;9716;53.114;18.040;2023-09-19T08:50:49;7.20;;;2.83;;
19167;SDS011;9716;53.114;18.040;2023-09-19T08:53:21;3.30;;;1.88;;
19167;SDS011;9716;53.114;18.040;2023-09-19T08:55:56;3.80;;;2.13;;
19167;SDS011;9716;53.114;18.040;2023-09-19T08:58:26;5.80;;;1.63;;
19167;SDS011;9716;53.114;18.040;2023-09-19T09:01:00;2.13;;;1.92;;
19167;SDS011;9716;53.114;18.040;2023-09-19T09:03:32;4.38;;;2.47;;
19167;SDS011;9716;53.114;18.040;2023-09-19T09:06:02;3.50;;;2.20;;
19167;SDS011;9716;53.114;18.040;2023-09-19T09:08:31;3.88;;;2.13;;
19167;SDS011;9716;53.114;18.040;2023-09-19T09:11:00;2.38;;;1.73;;
19167;SDS011;9716;53.114;18.040;2023-09-19T09:13:29;3.95;;;2.03;;
19167;SDS011;9716;53.114;18.040;2023-09-19T09:15:58;6.10;;;2.13;;
19167;SDS011;9716;53.114;18.040;2023-09-19T09:18:27;2.38;;;1.90;;
19167;SDS011;9716;53.114;18.040;2023-09-19T09:20:58;3.10;;;1.52;;
19167;SDS011;9716;53.114;18.040;2023-09-19T09:23:27;4.50;;;1.75;;
19167;SDS011;9716;53.114;18.040;2023-09-19T09:25:57;1.70;;;1.48;;
19167;SDS011;9716;53.114;18.040;2023-09-19T09:28:30;3.60;;;1.77;;
19167;SDS011;9716;53.114;18.040;2023-09-19T09:31:00;6.78;;;1.73;;
19167;SDS011;9716;53.114;18.040;2023-09-19T09:33:35;3.38;;;1.85;;
19167;SDS011;9716;53.114;18.040;2023-09-19T09:36:05;3.40;;;1.98;;
19167;SDS011;9716;53.114;18.040;2023-09-19T09:38:42;2.30;;;1.45;;
19167;SDS011;9716;53.114;18.040;2023-09-19T09:41:12;4.50;;;1.60;;
19167;SDS011;9716;53.114;18.040;2023-09-19T09:43:54;1.73;;;1.15;;
19167;SDS011;9716;53.114;18.040;2023-09-19T09:46:22;3.38;;;1.25;;
19167;SDS011;9716;53.114;18.040;2023-09-19T09:49:09;8.60;;;1.60;;
19167;SDS011;9716;53.114;18.040;2023-09-19T09:52:01;3.28;;;1.65;;
19167;SDS011;9716;53.114;18.040;2023-09-19T09:54:37;2.72;;;1.55;;
19167;SDS011;9716;53.114;18.040;2023-09-19T09:57:09;1.70;;;1.25;;
19167;SDS011;9716;53.114;18.040;2023-09-19T09:59:44;3.58;;;1.65;;
19167;SDS011;9716;53.114;18.040;2023-09-19T10:02:13;1.23;;;1.10;;
19167;SDS011;9716;53.114;18.040;2023-09-19T10:04:47;4.07;;;1.73;;
19167;SDS011;9716;53.114;18.040;2023-09-19T10:07:42;1.25;;;1.02;;
19167;SDS011;9716;53.114;18.040;2023-09-19T10:10:28;0.93;;;0.90;;
19167;SDS011;9716;53.114;18.040;2023-09-19T10:13:06;1.70;;;1.20;;
19167;SDS011;9716;53.114;18.040;2023-09-19T10:15:39;1.30;;;1.20;;
19167;SDS011;9716;53.114;18.040;2023-09-19T10:18:10;3.33;;;1.33;;
19167;SDS011;9716;53.114;18.040;2023-09-19T10:20:44;3.33;;;1.10;;
19167;SDS011;9716;53.114;18.040;2023-09-19T10:23:16;1.38;;;1.27;;
19167;SDS011;9716;53.114;18.040;2023-09-19T10:25:49;2.30;;;1.20;;
19167;SDS011;9716;53.114;18.040;2023-09-19T10:28:19;1.75;;;1.02;;
19167;SDS011;9716;53.114;18.040;2023-09-19T10:30:50;2.58;;;1.40;;
19167;SDS011;9716;53.114;18.040;2023-09-19T10:33:21;1.95;;;1.48;;
19167;SDS011;9716;53.114;18.040;2023-09-19T10:35:53;5.50;;;1.10;;
19167;SDS011;9716;53.114;18.040;2023-09-19T10:38:24;2.97;;;1.10;;
19167;SDS011;9716;53.114;18.040;2023-09-19T10:40:55;1.20;;;1.10;;
19167;SDS011;9716;53.114;18.040;2023-09-19T10:43:29;2.08;;;1.20;;
19167;SDS011;9716;53.114;18.040;2023-09-19T10:46:03;1.52;;;1.02;;
19167;SDS011;9716;53.114;18.040;2023-09-19T10:48:38;1.30;;;1.13;;
19167;SDS011;9716;53.114;18.040;2023-09-19T10:51:08;1.27;;;1.10;;
19167;SDS011;9716;53.114;18.040;2023-09-19T10:53:42;2.00;;;1.08;;
19167;SDS011;9716;53.114;18.040;2023-09-19T10:56:18;2.72;;;0.93;;
19167;SDS011;9716;53.114;18.040;2023-09-19T10:58:51;1.48;;;1.25;;
19167;SDS011;9716;53.114;18.040;2023-09-19T11:01:19;1.00;;;0.77;;
19167;SDS011;9716;53.114;18.040;2023-09-19T11:03:48;1.35;;;1.25;;
19167;SDS011;9716;53.114;18.040;2023-09-19T11:07:01;1.13;;;0.93;;
19167;SDS011;9716;53.114;18.040;2023-09-19T11:09:45;12.05;;;1.40;;
19167;SDS011;9716;53.114;18.040;2023-09-19T11:21:39;1.40;;;1.10;;
19167;SDS011;9716;53.114;18.040;2023-09-19T11:29:46;4.15;;;0.80;;
19167;SDS011;9716;53.114;18.040;2023-09-19T11:32:16;1.80;;;0.93;;
19167;SDS011;9716;53.114;18.040;2023-09-19T11:34:46;1.33;;;1.20;;
19167;SDS011;9716;53.114;18.040;2023-09-19T11:40:38;0.90;;;0.90;;
19167;SDS011;9716;53.114;18.040;2023-09-19T11:46:06;1.35;;;1.25;;
19167;SDS011;9716;53.114;18.040;2023-09-19T11:48:35;2.72;;;0.95;;
19167;SDS011;9716;53.114;18.040;2023-09-19T11:51:11;2.58;;;1.58;;
19167;SDS011;9716;53.114;18.040;2023-09-19T11:53:46;1.48;;;1.20;;
19167;SDS011;9716;53.114;18.040;2023-09-19T11:56:16;0.85;;;0.85;;
19167;SDS011;9716;53.114;18.040;2023-09-19T11:58:50;2.70;;;1.48;;
19167;SDS011;9716;53.114;18.040;2023-09-19T12:01:22;1.13;;;1.02;;
19167;SDS011;9716;53.114;18.040;2023-09-19T12:03:53;1.30;;;1.02;;
19167;SDS011;9716;53.114;18.040;2023-09-19T12:06:24;2.50;;;1.10;;
19167;SDS011;9716;53.114;18.040;2023-09-19T12:08:53;2.00;;;1.10;;
19167;SDS011;9716;53.114;18.040;2023-09-19T12:11:24;1.27;;;0.80;;
19167;SDS011;9716;53.114;18.040;2023-09-19T12:13:56;5.47;;;0.98;;
19167;SDS011;9716;53.114;18.040;2023-09-19T12:16:27;2.72;;;1.08;;
19167;SDS011;9716;53.114;18.040;2023-09-19T12:18:57;1.02;;;0.93;;
19167;SDS011;9716;53.114;18.040;2023-09-19T12:21:45;3.10;;;1.52;;
19167;SDS011;9716;53.114;18.040;2023-09-19T12:24:23;2.47;;;1.05;;
19167;SDS011;9716;53.114;18.040;2023-09-19T12:26:53;1.35;;;1.10;;
19167;SDS011;9716;53.114;18.040;2023-09-19T12:29:25;2.25;;;1.10;;
19167;SDS011;9716;53.114;18.040;2023-09-19T12:31:54;3.17;;;1.52;;
19167;SDS011;9716;53.114;18.040;2023-09-19T12:34:25;4.63;;;1.35;;
19167;SDS011;9716;53.114;18.040;2023-09-19T12:37:07;1.92;;;1.02;;
19167;SDS011;9716;53.114;18.040;2023-09-19T12:39:42;3.97;;;1.40;;
19167;SDS011;9716;53.114;18.040;2023-09-19T12:42:43;3.58;;;1.13;;
19167;SDS011;9716;53.114;18.040;2023-09-19T12:45:14;3.70;;;0.95;;
19167;SDS011;9716;53.114;18.040;2023-09-19T12:53:35;3.65;;;1.52;;
19167;SDS011;9716;53.114;18.040;2023-09-19T12:56:08;2.55;;;1.27;;
19167;SDS011;9716;53.114;18.040;2023-09-19T12:58:49;3.00;;;1.20;;
19167;SDS011;9716;53.114;18.040;2023-09-19T13:01:23;3.17;;;1.38;;
19167;SDS011;9716;53.114;18.040;2023-09-19T13:04:10;4.38;;;1.17;;
19167;SDS011;9716;53.114;18.040;2023-09-19T13:06:45;1.58;;;1.33;;
19167;SDS011;9716;53.114;18.040;2023-09-19T13:09:16;1.13;;;1.05;;
19167;SDS011;9716;53.114;18.040;2023-09-19T13:11:45;3.33;;;1.45;;
19167;SDS011;9716;53.114;18.040;2023-09-19T13:14:18;3.58;;;1.08;;
19167;SDS011;9716;53.114;18.040;2023-09-19T13:16:56;1.80;;;1.35;;
19167;SDS011;9716;53.114;18.040;2023-09-19T13:19:34;4.78;;;1.13;;
19167;SDS011;9716;53.114;18.040;2023-09-19T13:22:04;3.33;;;1.25;;
19167;SDS011;9716;53.114;18.040;2023-09-19T13:24:35;6.72;;;1.17;;
19167;SDS011;9716;53.114;18.040;2023-09-19T13:27:07;5.35;;;1.33;;
19167;SDS011;9716;53.114;18.040;2023-09-19T13:29:36;1.70;;;1.20;;
19167;SDS011;9716;53.114;18.040;2023-09-19T13:32:07;1.95;;;1.25;;
19167;SDS011;9716;53.114;18.040;2023-09-19T13:34:38;4.88;;;1.63;;
19167;SDS011;9716;53.114;18.040;2023-09-19T13:37:06;4.47;;;1.23;;
19167;SDS011;9716;53.114;18.040;2023-09-19T13:39:36;1.88;;;1.20;;
19167;SDS011;9716;53.114;18.040;2023-09-19T13:42:09;2.38;;;1.65;;
19167;SDS011;9716;53.114;18.040;2023-09-19T13:44:38;3.22;;;1.65;;
19167;SDS011;9716;53.114;18.040;2023-09-19T13:47:09;5.82;;;1.80;;
19167;SDS011;9716;53.114;18.040;2023-09-19T13:49:40;2.22;;;1.20;;
19167;SDS011;9716;53.114;18.040;2023-09-19T13:52:09;3.35;;;1.75;;
19167;SDS011;9716;53.114;18.040;2023-09-19T13:54:39;6.60;;;1.52;;
19167;SDS011;9716;53.114;18.040;2023-09-19T13:57:08;4.85;;;1.27;;
19167;SDS011;9716;53.114;18.040;2023-09-19T13:59:37;12.07;;;1.58;;
19167;SDS011;9716;53.114;18.040;2023-09-19T14:02:05;4.10;;;1.45;;
19167;SDS011;9716;53.114;18.040;2023-09-19T14:04:36;3.33;;;1.40;;
19167;SDS011;9716;53.114;18.040;2023-09-19T14:07:04;2.65;;;1.33;;
19167;SDS011;9716;53.114;18.040;2023-09-19T14:09:34;1.65;;;1.25;;
19167;SDS011;9716;53.114;18.040;2023-09-19T14:12:03;2.55;;;1.17;;
19167;SDS011;9716;53.114;18.040;2023-09-19T14:14:33;2.45;;;1.52;;
19167;SDS011;9716;53.114;18.040;2023-09-19T14:17:02;4.28;;;2.15;;
19167;SDS011;9716;53.114;18.040;2023-09-19T14:19:31;1.73;;;1.15;;
19167;SDS011;9716;53.114;18.040;2023-09-19T14:22:01;2.15;;;1.40;;
19167;SDS011;9716;53.114;18.040;2023-09-19T14:24:34;1.25;;;1.00;;
19167;SDS011;9716;53.114;18.040;2023-09-19T14:27:03;1.75;;;1.27;;
19167;SDS011;9716;53.114;18.040;2023-09-19T14:29:33;3.08;;;1.70;;
19167;SDS011;9716;53.114;18.040;2023-09-19T14:32:02;3.38;;;1.40;;
19167;SDS011;9716;53.114;18.040;2023-09-19T14:34:31;3.03;;;1.40;;
19167;SDS011;9716;53.114;18.040;2023-09-19T14:37:01;4.68;;;1.35;;
19167;SDS011;9716;53.114;18.040;2023-09-19T14:39:30;3.20;;;1.27;;
19167;SDS011;9716;53.114;18.040;2023-09-19T14:41:59;4.32;;;1.50;;
19167;SDS011;9716;53.114;18.040;2023-09-19T14:44:27;3.65;;;1.73;;
19167;SDS011;9716;53.114;18.040;2023-09-19T14:46:56;1.75;;;1.25;;
19167;SDS011;9716;53.114;18.040;2023-09-19T14:49:25;4.85;;;1.40;;
19167;SDS011;9716;53.114;18.040;2023-09-19T14:51:54;3.30;;;1.75;;
19167;SDS011;9716;53.114;18.040;2023-09-19T14:54:23;3.05;;;1.35;;
19167;SDS011;9716;53.114;18.040;2023-09-19T14:56:52;4.13;;;1.55;;
19167;SDS011;9716;53.114;18.040;2023-09-19T14:59:30;3.78;;;1.70;;
19167;SDS011;9716;53.114;18.040;2023-09-19T15:02:00;2.33;;;1.67;;
19167;SDS011;9716;53.114;18.040;2023-09-19T15:04:28;4.00;;;1.90;;
19167;SDS011;9716;53.114;18.040;2023-09-19T15:06:58;2.65;;;1.55;;
19167;SDS011;9716;53.114;18.040;2023-09-19T15:09:28;6.03;;;1.75;;
19167;SDS011;9716;53.114;18.040;2023-09-19T15:11:59;4.35;;;1.92;;
19167;SDS011;9716;53.114;18.040;2023-09-19T15:14:27;2.03;;;1.33;;
19167;SDS011;9716;53.114;18.040;2023-09-19T15:16:56;2.40;;;1.52;;
19167;SDS011;9716;53.114;18.040;2023-09-19T15:19:25;1.98;;;1.23;;
19167;SDS011;9716;53.114;18.040;2023-09-19T15:21:54;5.10;;;2.15;;
19167;SDS011;9716;53.114;18.040;2023-09-19T15:24:22;3.13;;;1.63;;
19167;SDS011;9716;53.114;18.040;2023-09-19T15:26:54;4.07;;;1.88;;
19167;SDS011;9716;53.114;18.040;2023-09-19T15:29:24;2.63;;;1.80;;
19167;SDS011;9716;53.114;18.040;2023-09-19T15:31:54;1.50;;;1.20;;
19167;SDS011;9716;53.114;18.040;2023-09-19T15:34:25;3.40;;;1.58;;
19167;SDS011;9716;53.114;18.040;2023-09-19T15:36:55;4.00;;;1.70;;
19167;SDS011;9716;53.114;18.040;2023-09-19T15:39:23;2.88;;;1.60;;
19167;SDS011;9716;53.114;18.040;2023-09-19T15:41:52;3.90;;;1.63;;